Time;durP1;ratioP1;P1;durP2;ratioP2;P2;SDS_P1;SDS_P2;PMS_P1;PMS_P2;Temp;Humidity;BMP_temperature;BMP_pressure;BME280_temperature;BME280_humidity;BME280_pressure;Samples;Min_cycle;Max_cycle;Signal;HPM_P1;HPM_P2
2022/03/28 00:01:55;;;;;;;40.92;16.55;;;15.30;46.90;;;;;;4952547;28;20415;-74
2022/03/28 00:04:22;;;;;;;32.72;16.02;;;15.30;47.00;;;;;;4952305;28;20051;-74
2022/03/28 00:06:49;;;;;;;37.03;15.88;;;15.30;47.00;;;;;;4950886;28;20058;-74
2022/03/28 00:09:16;;;;;;;32.10;16.08;;;15.20;47.10;;;;;;4953333;28;20051;-76
2022/03/28 00:11:45;;;;;;;35.60;16.35;;;15.20;47.10;;;;;;4951370;28;20126;-75
2022/03/28 00:14:12;;;;;;;29.15;14.75;;;15.20;47.30;;;;;;4953608;28;20498;-75
2022/03/28 00:16:38;;;;;;;33.50;15.40;;;15.20;47.40;;;;;;4953247;28;20136;-75
2022/03/28 00:19:05;;;;;;;30.83;16.05;;;15.10;47.40;;;;;;4952446;28;20047;-75
2022/03/28 00:21:32;;;;;;;28.90;14.45;;;15.10;47.30;;;;;;4953375;28;20043;-75
2022/03/28 00:23:59;;;;;;;34.72;15.80;;;15.10;47.40;;;;;;4952812;28;20070;-75
2022/03/28 00:26:26;;;;;;;32.72;15.52;;;15.10;47.50;;;;;;4953904;28;20051;-75
2022/03/28 00:28:54;;;;;;;34.42;16.90;;;15.10;47.70;;;;;;4951530;28;20553;-74
2022/03/28 00:31:21;;;;;;;31.58;17.02;;;15.10;47.70;;;;;;4951923;28;20061;-76
2022/03/28 00:33:48;;;;;;;29.50;15.20;;;15.10;47.60;;;;;;4953424;28;20138;-74
2022/03/28 00:36:15;;;;;;;30.70;16.80;;;15.00;47.50;;;;;;4952329;28;20059;-75
2022/03/28 00:38:42;;;;;;;29.83;16.25;;;15.00;47.70;;;;;;4953730;28;20047;-75
2022/03/28 00:41:09;;;;;;;36.38;16.92;;;15.00;47.70;;;;;;4953116;28;20993;-74
2022/03/28 00:43:43;;;;;;;32.80;16.42;;;14.90;47.70;;;;;;4953191;28;20054;-75
2022/03/28 00:46:12;;;;;;;30.42;16.23;;;14.90;47.70;;;;;;4953327;28;20138;-74
2022/03/28 00:48:42;;;;;;;37.17;16.55;;;14.90;47.90;;;;;;4952965;28;20133;-75
2022/03/28 00:51:10;;;;;;;32.20;16.00;;;14.90;47.80;;;;;;4953214;28;20047;-75
2022/03/28 00:53:38;;;;;;;29.88;15.57;;;14.90;47.80;;;;;;4952489;28;20055;-75
2022/03/28 00:56:05;;;;;;;37.15;16.70;;;14.90;48.50;;;;;;4953195;28;20090;-75
2022/03/28 00:58:34;;;;;;;38.47;17.73;;;14.90;47.90;;;;;;4951705;28;20118;-74
2022/03/28 01:01:01;;;;;;;35.13;16.85;;;14.90;47.90;;;;;;4951594;28;20050;-75
2022/03/28 01:03:29;;;;;;;32.90;16.67;;;14.90;47.80;;;;;;4951536;28;20059;-75
2022/03/28 01:05:56;;;;;;;34.55;16.67;;;14.90;47.90;;;;;;4952620;28;20151;-74
2022/03/28 01:08:23;;;;;;;34.95;16.48;;;14.90;48.10;;;;;;4947625;28;20047;-75
2022/03/28 01:10:55;;;;;;;35.50;17.58;;;14.80;48.00;;;;;;4951394;28;20663;-74
2022/03/28 01:13:23;;;;;;;35.65;16.67;;;14.80;47.90;;;;;;4951886;28;20536;-74
2022/03/28 01:15:50;;;;;;;38.30;18.20;;;14.80;48.00;;;;;;4951739;28;20074;-74
2022/03/28 01:18:16;;;;;;;35.30;17.30;;;14.70;48.10;;;;;;4950943;28;20055;-74
2022/03/28 01:20:44;;;;;;;34.53;17.60;;;14.70;48.00;;;;;;4952680;28;20058;-74
2022/03/28 01:23:13;;;;;;;38.00;18.52;;;14.70;48.00;;;;;;4951798;28;20491;-74
2022/03/28 01:25:39;;;;;;;40.25;18.90;;;14.60;48.00;;;;;;4951476;28;20728;-74
2022/03/28 01:28:07;;;;;;;33.00;17.38;;;14.60;48.30;;;;;;4950915;28;20067;-74
2022/03/28 01:30:34;;;;;;;39.45;18.52;;;14.50;48.40;;;;;;4951068;28;20151;-74
2022/03/28 01:33:02;;;;;;;34.90;17.58;;;14.50;48.30;;;;;;4951875;28;20521;-74
2022/03/28 01:35:32;;;;;;;33.63;17.38;;;14.40;48.40;;;;;;4950622;28;20058;-75
2022/03/28 01:38:00;;;;;;;35.90;18.23;;;14.40;48.50;;;;;;4951910;28;20118;-76
2022/03/28 01:40:29;;;;;;;36.83;17.90;;;14.40;48.40;;;;;;4949508;28;20047;-74
2022/03/28 01:42:56;;;;;;;38.13;18.45;;;14.30;48.50;;;;;;4950976;28;20534;-76
2022/03/28 01:45:23;;;;;;;31.98;17.25;;;14.30;48.70;;;;;;4950501;28;20502;-74
2022/03/28 01:47:50;;;;;;;32.63;17.27;;;14.30;48.70;;;;;;4950115;28;20495;-74
2022/03/28 01:50:18;;;;;;;39.17;17.92;;;14.20;48.80;;;;;;4950965;28;20079;-74
2022/03/28 01:52:46;;;;;;;35.97;18.08;;;14.20;48.90;;;;;;4949880;28;20130;-74
2022/03/28 01:55:13;;;;;;;37.75;17.73;;;14.20;49.00;;;;;;4948938;28;20105;-74
2022/03/28 01:57:43;;;;;;;37.75;18.45;;;14.20;49.00;;;;;;4951484;28;20047;-74
2022/03/28 02:00:12;;;;;;;32.85;17.58;;;14.20;48.90;;;;;;4949602;28;20043;-74
2022/03/28 02:02:39;;;;;;;36.47;18.52;;;14.20;49.00;;;;;;4950763;28;20063;-74
2022/03/28 02:05:11;;;;;;;35.13;18.15;;;14.20;49.00;;;;;;4951513;28;20126;-74
2022/03/28 02:07:39;;;;;;;39.75;18.10;;;14.20;49.20;;;;;;4949198;28;20138;-75
2022/03/28 02:10:07;;;;;;;37.70;17.30;;;14.10;49.30;;;;;;4949667;28;20051;-74
2022/03/28 02:12:33;;;;;;;36.33;17.90;;;14.10;49.30;;;;;;4949830;28;20142;-75
2022/03/28 02:15:02;;;;;;;37.78;18.42;;;14.10;49.20;;;;;;4951032;28;20065;-74
2022/03/28 02:17:30;;;;;;;33.70;18.80;;;14.10;49.20;;;;;;4950920;28;20094;-74
2022/03/28 02:19:57;;;;;;;36.38;17.52;;;14.10;49.40;;;;;;4949751;28;20050;-74
2022/03/28 02:22:24;;;;;;;40.17;17.58;;;14.10;49.50;;;;;;4949663;28;20134;-75
2022/03/28 02:24:51;;;;;;;36.85;17.48;;;14.10;49.40;;;;;;4947772;28;20150;-74
2022/03/28 02:27:18;;;;;;;35.22;16.70;;;14.10;49.20;;;;;;4949522;28;20066;-74
2022/03/28 02:29:45;;;;;;;34.42;17.40;;;14.10;49.10;;;;;;4950111;28;20047;-75
2022/03/28 02:32:14;;;;;;;38.17;18.67;;;14.10;49.50;;;;;;4948892;28;20047;-74
2022/03/28 02:34:41;;;;;;;34.15;17.33;;;14.10;50.20;;;;;;4950846;28;20173;-75
2022/03/28 02:37:08;;;;;;;38.50;18.45;;;14.10;49.50;;;;;;4949236;28;20053;-74
2022/03/28 02:39:35;;;;;;;36.28;18.02;;;14.20;49.50;;;;;;4950451;28;20130;-74
2022/03/28 02:42:02;;;;;;;35.42;17.23;;;14.20;49.50;;;;;;4949316;28;20039;-74
2022/03/28 02:44:29;;;;;;;36.50;17.90;;;14.10;49.30;;;;;;4949692;28;20483;-74
2022/03/28 02:46:56;;;;;;;36.70;17.90;;;14.10;49.20;;;;;;4950799;29;20066;-74
2022/03/28 02:49:25;;;;;;;35.53;17.73;;;14.10;49.30;;;;;;4946943;28;20508;-74
2022/03/28 02:51:51;;;;;;;36.10;17.83;;;14.10;49.40;;;;;;4948666;28;20047;-74
2022/03/28 02:54:19;;;;;;;39.67;18.35;;;14.20;49.60;;;;;;4949682;28;20070;-74
2022/03/28 02:56:45;;;;;;;35.85;18.40;;;14.10;49.50;;;;;;4948971;28;20055;-74
2022/03/28 02:59:13;;;;;;;37.60;17.80;;;14.10;49.50;;;;;;4947800;28;20142;-75
2022/03/28 03:01:41;;;;;;;37.03;18.63;;;14.10;49.40;;;;;;4949873;28;20058;-74
2022/03/28 03:04:08;;;;;;;41.50;19.27;;;14.10;49.50;;;;;;4950464;28;20051;-74
2022/03/28 03:06:36;;;;;;;35.80;18.17;;;14.10;49.40;;;;;;4949179;28;20040;-74
2022/03/28 03:09:03;;;;;;;37.63;19.05;;;14.10;49.50;;;;;;4950226;28;20524;-73
2022/03/28 03:11:30;;;;;;;38.85;18.67;;;14.10;49.50;;;;;;4949649;28;20438;-74
2022/03/28 03:13:57;;;;;;;38.60;18.60;;;14.10;49.70;;;;;;4951015;28;20432;-74
2022/03/28 03:16:24;;;;;;;36.05;18.20;;;14.00;49.70;;;;;;4948883;28;20051;-75
2022/03/28 03:18:51;;;;;;;36.58;18.02;;;14.00;49.80;;;;;;4951151;28;20051;-75
2022/03/28 03:21:18;;;;;;;39.33;19.05;;;14.00;49.70;;;;;;4950794;28;20063;-75
2022/03/28 03:23:46;;;;;;;37.40;18.92;;;14.10;49.60;;;;;;4950244;28;20688;-75
2022/03/28 03:26:13;;;;;;;39.75;18.50;;;14.00;50.20;;;;;;4950084;28;20134;-74
2022/03/28 03:28:40;;;;;;;39.88;18.83;;;14.00;50.50;;;;;;4950606;28;20406;-74
2022/03/28 03:31:07;;;;;;;40.17;19.27;;;14.00;50.00;;;;;;4949984;28;20071;-73
2022/03/28 03:33:34;;;;;;;37.90;18.75;;;13.90;49.90;;;;;;4949821;28;20074;-74
2022/03/28 03:36:01;;;;;;;41.38;19.73;;;14.00;49.90;;;;;;4949155;28;20380;-76
2022/03/28 03:38:29;;;;;;;39.60;18.95;;;13.90;49.80;;;;;;4951822;28;20050;-74
2022/03/28 03:40:57;;;;;;;44.75;20.17;;;13.90;49.90;;;;;;4950941;28;20126;-74
2022/03/28 03:43:25;;;;;;;42.00;19.20;;;13.90;49.90;;;;;;4950865;28;20051;-74
2022/03/28 03:45:51;;;;;;;41.95;19.35;;;13.80;50.00;;;;;;4946796;28;20051;-75
2022/03/28 03:48:20;;;;;;;41.85;19.25;;;13.80;50.00;;;;;;4949925;28;20376;-74
2022/03/28 03:50:47;;;;;;;42.13;19.67;;;13.80;50.20;;;;;;4947897;28;20126;-74
2022/03/28 03:53:14;;;;;;;49.63;21.50;;;13.70;50.20;;;;;;4949752;28;20051;-75
2022/03/28 03:55:41;;;;;;;39.15;19.65;;;13.60;50.20;;;;;;4950633;28;20145;-75
2022/03/28 03:58:09;;;;;;;45.83;19.92;;;13.60;50.20;;;;;;4949911;28;20558;-75
2022/03/28 04:00:36;;;;;;;39.67;20.02;;;13.60;50.20;;;;;;4947448;28;20074;-75
2022/03/28 04:03:03;;;;;;;41.25;19.70;;;13.60;50.30;;;;;;4949060;28;20063;-75
2022/03/28 04:05:31;;;;;;;51.70;20.50;;;13.60;50.40;;;;;;4951063;28;20391;-74
2022/03/28 04:07:59;;;;;;;47.47;22.67;;;13.60;50.40;;;;;;4953632;28;20130;-74
2022/03/28 04:10:26;;;;;;;55.05;21.08;;;13.50;50.50;;;;;;4952461;28;20054;-75
2022/03/28 04:12:53;;;;;;;43.85;20.80;;;13.50;50.50;;;;;;4952556;28;20489;-74
2022/03/28 04:15:21;;;;;;;51.20;20.50;;;13.40;50.60;;;;;;4951733;28;20138;-74
2022/03/28 04:17:48;;;;;;;41.20;19.58;;;13.50;50.60;;;;;;4951702;28;20047;-75
2022/03/28 04:20:18;;;;;;;41.67;20.90;;;13.50;50.70;;;;;;4951770;28;20467;-75
2022/03/28 04:22:45;;;;;;;43.20;20.13;;;13.50;50.80;;;;;;4952748;28;20051;-74
2022/03/28 04:25:14;;;;;;;51.60;20.48;;;13.50;50.90;;;;;;4952343;28;20888;-74
2022/03/28 04:27:42;;;;;;;40.20;20.23;;;13.50;50.90;;;;;;4953229;28;20039;-75
2022/03/28 04:30:10;;;;;;;42.60;20.27;;;13.50;51.10;;;;;;4952774;28;20552;-74
2022/03/28 04:32:39;;;;;;;41.50;19.48;;;13.50;50.90;;;;;;4951467;28;20542;-74
2022/03/28 04:35:08;;;;;;;42.75;19.80;;;13.50;50.90;;;;;;4952817;29;20056;-74
2022/03/28 04:37:35;;;;;;;45.60;20.98;;;13.50;50.80;;;;;;4952969;28;20418;-75
2022/03/28 04:40:04;;;;;;;45.17;20.35;;;13.50;50.90;;;;;;4952080;28;20149;-75
2022/03/28 04:42:31;;;;;;;47.28;20.85;;;13.40;51.00;;;;;;4951329;28;20456;-75
2022/03/28 04:44:58;;;;;;;48.10;21.17;;;13.40;51.10;;;;;;4951813;28;20678;-75
2022/03/28 04:47:25;;;;;;;46.78;20.80;;;13.40;51.00;;;;;;4951897;28;20582;-75
2022/03/28 04:49:53;;;;;;;55.42;22.13;;;13.30;50.90;;;;;;4953602;28;20126;-75
2022/03/28 04:52:20;;;;;;;46.72;20.80;;;13.30;51.20;;;;;;4949335;28;20142;-74
2022/03/28 04:54:47;;;;;;;49.95;21.83;;;13.30;51.20;;;;;;4951294;28;20054;-75
2022/03/28 04:57:16;;;;;;;50.60;21.70;;;13.30;51.20;;;;;;4951802;28;20126;-74
2022/03/28 04:59:43;;;;;;;50.28;21.23;;;13.30;51.30;;;;;;4951879;28;20055;-74
2022/03/28 05:02:10;;;;;;;48.75;20.77;;;13.30;51.30;;;;;;4952211;28;20051;-75
2022/03/28 05:04:36;;;;;;;49.15;20.83;;;13.30;51.50;;;;;;4952353;28;20142;-74
2022/03/28 05:07:06;;;;;;;46.30;20.58;;;13.30;51.30;;;;;;4952278;28;20583;-74
2022/03/28 05:09:33;;;;;;;43.30;20.30;;;13.30;51.30;;;;;;4952168;28;20043;-74
2022/03/28 05:11:59;;;;;;;41.55;20.45;;;13.30;51.40;;;;;;4951614;28;20130;-75
2022/03/28 05:14:26;;;;;;;48.88;21.67;;;13.30;51.50;;;;;;4951920;28;20146;-75
2022/03/28 05:16:53;;;;;;;56.67;21.10;;;13.30;51.40;;;;;;4952102;28;20051;-75
2022/03/28 05:19:20;;;;;;;45.70;22.40;;;13.40;51.30;;;;;;4951725;28;20093;-75
2022/03/28 05:21:47;;;;;;;54.47;22.60;;;13.40;51.30;;;;;;4951681;28;20146;-74
2022/03/28 05:24:15;;;;;;;56.58;23.60;;;13.40;51.60;;;;;;4951715;28;20167;-75
2022/03/28 05:26:42;;;;;;;51.25;23.20;;;13.30;51.90;;;;;;4952371;28;20043;-74
2022/03/28 05:29:09;;;;;;;51.55;21.65;;;13.30;51.90;;;;;;4952521;28;20055;-75
2022/03/28 05:31:36;;;;;;;52.80;22.77;;;13.30;51.70;;;;;;4951923;28;20174;-74
2022/03/28 05:34:03;;;;;;;63.35;21.73;;;13.30;51.60;;;;;;4952216;28;20153;-74
2022/03/28 05:36:30;;;;;;;52.95;21.50;;;13.30;51.80;;;;;;4951513;28;20134;-75
2022/03/28 05:38:57;;;;;;;46.42;20.88;;;13.30;51.80;;;;;;4951272;28;20765;-74
2022/03/28 05:41:25;;;;;;;47.17;20.60;;;13.30;51.80;;;;;;4951405;28;20061;-74
2022/03/28 05:43:52;;;;;;;47.97;21.15;;;13.30;51.80;;;;;;4952592;28;20047;-74
2022/03/28 05:46:19;;;;;;;47.13;21.40;;;13.30;52.00;;;;;;4951859;28;20122;-74
2022/03/28 05:48:46;;;;;;;53.60;21.38;;;13.30;51.90;;;;;;4951128;28;20043;-74
2022/03/28 05:51:13;;;;;;;52.83;23.02;;;13.30;52.00;;;;;;4950574;28;20051;-74
2022/03/28 05:53:39;;;;;;;50.25;22.27;;;13.30;52.20;;;;;;4951013;28;20101;-74
2022/03/28 05:56:06;;;;;;;55.72;22.27;;;13.30;52.20;;;;;;4950804;28;20447;-74
2022/03/28 05:58:34;;;;;;;50.80;22.20;;;13.30;52.20;;;;;;4948470;28;20507;-74
2022/03/28 06:01:02;;;;;;;48.40;22.45;;;13.30;52.50;;;;;;4949695;28;20146;-74
2022/03/28 06:03:29;;;;;;;53.40;23.38;;;13.30;52.70;;;;;;4951603;28;20065;-74
2022/03/28 06:05:57;;;;;;;52.20;23.90;;;13.30;52.90;;;;;;4951216;28;20473;-74
2022/03/28 06:08:24;;;;;;;51.85;23.25;;;13.30;53.30;;;;;;4951260;28;20073;-75
2022/03/28 06:10:52;;;;;;;61.92;23.55;;;13.30;52.70;;;;;;4950842;28;20582;-77
2022/03/28 06:13:19;;;;;;;57.83;23.20;;;13.30;53.00;;;;;;4949313;28;20055;-78
2022/03/28 06:15:48;;;;;;;50.97;23.17;;;13.30;53.10;;;;;;4950931;28;20134;-78
2022/03/28 06:18:15;;;;;;;56.60;23.75;;;13.30;52.90;;;;;;4950653;28;20227;-78
2022/03/28 06:20:42;;;;;;;56.83;23.67;;;13.30;52.90;;;;;;4949054;28;20130;-78
2022/03/28 06:23:12;;;;;;;63.55;23.77;;;13.30;53.20;;;;;;4948907;28;20495;-75
2022/03/28 06:25:40;;;;;;;50.60;22.80;;;13.30;53.00;;;;;;4951396;28;20054;-75
2022/03/28 06:28:07;;;;;;;57.85;22.92;;;13.40;53.10;;;;;;4949962;28;20502;-75
2022/03/28 06:30:34;;;;;;;51.70;22.67;;;13.40;53.00;;;;;;4949117;28;20067;-75
2022/03/28 06:33:02;;;;;;;59.10;22.88;;;13.40;52.90;;;;;;4949483;28;20054;-74
2022/03/28 06:35:30;;;;;;;44.35;22.42;;;13.40;52.90;;;;;;4948227;28;20134;-75
2022/03/28 06:37:57;;;;;;;50.00;22.08;;;13.40;52.90;;;;;;4951081;28;20054;-75
2022/03/28 06:40:24;;;;;;;65.20;23.83;;;13.40;52.90;;;;;;4949335;28;20043;-74
2022/03/28 06:42:51;;;;;;;50.60;23.00;;;13.40;53.00;;;;;;4949236;28;20490;-75
2022/03/28 06:45:18;;;;;;;45.42;22.30;;;13.40;53.10;;;;;;4948825;28;20063;-75
2022/03/28 06:47:50;;;;;;;50.20;21.20;;;13.40;53.10;;;;;;4950082;28;20423;-75
2022/03/28 06:50:19;;;;;;;58.92;22.65;;;13.50;53.30;;;;;;4948650;28;20074;-74
2022/03/28 06:52:47;;;;;;;51.22;23.02;;;13.50;53.30;;;;;;4949868;28;20058;-74
2022/03/28 06:55:14;;;;;;;54.05;23.65;;;13.50;53.20;;;;;;4947537;28;20495;-75
2022/03/28 06:57:41;;;;;;;50.28;22.02;;;13.50;53.30;;;;;;4946978;28;20074;-75
2022/03/28 07:00:10;;;;;;;53.13;23.95;;;13.60;53.40;;;;;;4947715;28;20053;-74
2022/03/28 07:02:37;;;;;;;48.78;24.08;;;13.60;53.40;;;;;;4948684;28;20395;-73
2022/03/28 07:05:05;;;;;;;47.58;22.63;;;13.60;53.40;;;;;;4949553;28;20079;-74
2022/03/28 07:07:41;;;;;;;52.63;23.00;;;13.70;53.50;;;;;;4949037;28;20530;-75
2022/03/28 07:10:09;;;;;;;53.92;23.95;;;13.70;53.50;;;;;;4948479;28;20039;-75
2022/03/28 07:12:36;;;;;;;55.70;22.15;;;13.70;53.50;;;;;;4947671;28;20047;-73
2022/03/28 07:15:03;;;;;;;48.60;23.17;;;13.80;53.60;;;;;;4948748;28;20141;-73
2022/03/28 07:17:30;;;;;;;57.85;23.67;;;13.80;53.70;;;;;;4948633;28;20043;-73
2022/03/28 07:19:57;;;;;;;54.17;23.95;;;13.90;53.80;;;;;;4948177;28;20171;-74
2022/03/28 07:22:24;;;;;;;52.65;23.55;;;13.90;54.00;;;;;;4947336;28;20632;-74
2022/03/28 07:24:52;;;;;;;61.15;25.05;;;14.00;54.10;;;;;;4948467;28;20051;-74
2022/03/28 07:27:19;;;;;;;67.13;30.17;;;14.00;54.10;;;;;;4947593;28;20126;-74
2022/03/28 07:29:46;;;;;;;63.67;26.75;;;14.10;54.10;;;;;;4947957;28;20125;-75
2022/03/28 07:32:13;;;;;;;63.90;26.02;;;14.10;54.20;;;;;;4947455;28;20082;-76
2022/03/28 07:34:40;;;;;;;62.38;27.15;;;14.20;54.40;;;;;;4947817;28;20051;-75
2022/03/28 07:37:07;;;;;;;59.63;27.55;;;14.20;54.40;;;;;;4948255;28;20058;-74
2022/03/28 07:39:34;;;;;;;64.60;28.15;;;14.30;54.60;;;;;;4951062;28;20141;-74
2022/03/28 07:42:04;;;;;;;65.40;28.33;;;14.30;54.70;;;;;;4951579;28;20165;-75
2022/03/28 07:44:31;;;;;;;59.30;27.20;;;14.40;54.80;;;;;;4952023;28;20134;-75
2022/03/28 07:46:58;;;;;;;60.45;28.13;;;14.40;54.90;;;;;;4952358;28;20074;-75
2022/03/28 07:49:25;;;;;;;66.22;29.08;;;14.50;55.10;;;;;;4953427;28;20039;-74
2022/03/28 07:51:52;;;;;;;71.07;31.02;;;14.50;55.10;;;;;;4952238;28;20118;-74
2022/03/28 07:54:19;;;;;;;70.88;31.33;;;14.60;55.00;;;;;;4952929;28;20050;-74
2022/03/28 07:56:46;;;;;;;67.00;31.52;;;14.70;54.90;;;;;;4952954;28;20049;-74
2022/03/28 07:59:14;;;;;;;65.82;32.38;;;14.70;54.70;;;;;;4954642;28;20043;-75
2022/03/28 08:01:41;;;;;;;71.72;32.65;;;14.80;54.70;;;;;;4952179;28;20078;-74
2022/03/28 08:04:08;;;;;;;85.55;32.28;;;14.90;54.80;;;;;;4952206;28;20047;-74
2022/03/28 08:06:35;;;;;;;77.28;32.65;;;14.90;54.80;;;;;;4953016;28;20058;-74
2022/03/28 08:09:02;;;;;;;71.28;33.00;;;15.00;54.90;;;;;;4952821;28;20039;-74
2022/03/28 08:11:31;;;;;;;71.13;33.95;;;15.10;55.00;;;;;;4952827;28;20047;-74
2022/03/28 08:13:58;;;;;;;74.38;31.30;;;15.10;55.20;;;;;;4953223;28;20052;-74
2022/03/28 08:16:26;;;;;;;66.97;31.88;;;15.20;55.20;;;;;;4950750;28;20075;-74
2022/03/28 08:18:53;;;;;;;72.80;33.85;;;15.30;55.20;;;;;;4951472;28;20126;-74
2022/03/28 08:21:20;;;;;;;87.78;37.47;;;15.30;55.30;;;;;;4953776;28;20062;-74
2022/03/28 08:23:47;;;;;;;71.70;32.38;;;15.40;55.40;;;;;;4951238;28;20170;-74
2022/03/28 08:26:15;;;;;;;67.68;32.45;;;15.50;55.40;;;;;;4952128;28;20145;-74
2022/03/28 08:28:42;;;;;;;74.30;31.73;;;15.60;55.50;;;;;;4954125;28;20086;-79
2022/03/28 08:31:09;;;;;;;76.07;34.10;;;15.70;55.60;;;;;;4954424;28;20119;-79
2022/03/28 08:33:38;;;;;;;78.40;33.85;;;15.70;55.40;;;;;;4954337;28;20138;-77
2022/03/28 08:36:05;;;;;;;72.03;32.05;;;15.80;55.50;;;;;;4953962;28;20134;-79
2022/03/28 08:38:35;;;;;;;75.35;32.35;;;15.90;55.40;;;;;;4956776;28;20231;-78
2022/03/28 08:41:02;;;;;;;76.55;33.97;;;16.00;55.30;;;;;;4956330;28;20094;-81
2022/03/28 08:43:32;;;;;;;85.60;34.58;;;16.00;55.40;;;;;;4953521;28;20142;-77
2022/03/28 08:46:02;;;;;;;70.35;33.22;;;16.10;55.60;;;;;;4957161;28;20054;-80
2022/03/28 08:52:08;;;;;;;84.63;34.97;;;16.20;55.30;;;;;;5078416;27;20448;-86
2022/03/28 08:54:36;;;;;;;89.47;35.90;;;15.90;56.50;;;;;;5078911;28;20120;-84
2022/03/28 08:57:03;;;;;;;79.22;35.53;;;16.10;56.50;;;;;;5071494;28;20080;-84
2022/03/28 08:59:30;;;;;;;87.68;37.15;;;16.20;56.50;;;;;;5076441;28;20126;-85
2022/03/28 09:01:58;;;;;;;78.75;34.53;;;16.30;56.20;;;;;;5074069;28;20055;-83
2022/03/28 09:04:25;;;;;;;81.97;35.13;;;16.40;56.10;;;;;;5074657;28;20041;-84
2022/03/28 09:06:52;;;;;;;71.53;34.55;;;16.50;56.00;;;;;;5078200;28;20057;-83
2022/03/28 09:09:24;;;;;;;77.72;33.72;;;16.60;55.80;;;;;;5093248;28;20045;-84
2022/03/28 09:11:53;;;;;;;81.88;34.08;;;16.60;55.50;;;;;;5093885;28;20048;-83
2022/03/28 09:14:28;;;;;;;79.03;34.17;;;16.70;55.40;;;;;;5077644;28;20349;-83
2022/03/28 09:16:59;;;;;;;69.00;32.15;;;16.70;55.10;;;;;;5074876;28;20049;-85
2022/03/28 09:19:28;;;;;;;69.28;31.40;;;16.70;55.00;;;;;;5064447;28;20071;-84
2022/03/28 09:21:55;;;;;;;72.82;31.52;;;16.80;54.70;;;;;;5067893;28;20083;-84
2022/03/28 09:24:32;;;;;;;73.38;32.65;;;16.90;54.50;;;;;;5066049;28;20395;-84
2022/03/28 09:27:11;;;;;;;71.05;31.75;;;16.90;54.40;;;;;;5063101;28;20100;-85
2022/03/28 09:30:04;;;;;;;76.00;33.38;;;16.90;53.90;;;;;;5063005;28;20071;-83
2022/03/28 09:32:32;;;;;;;77.35;32.47;;;16.80;54.50;;;;;;5077360;28;20041;-85
2022/03/28 09:35:10;;;;;;;71.07;32.40;;;16.90;54.10;;;;;;5080670;28;20408;-86
2022/03/28 09:38:01;;;;;;;74.70;33.25;;;16.90;54.00;;;;;;5067706;28;20040;-86
2022/03/28 09:40:36;;;;;;;68.05;31.40;;;17.00;53.70;;;;;;5081643;28;20048;-87
2022/03/28 09:43:06;;;;;;;73.43;32.03;;;17.00;53.60;;;;;;5063380;28;20045;-81
2022/03/28 09:45:36;;;;;;;72.75;30.77;;;17.20;53.30;;;;;;5058493;28;20045;-80
2022/03/28 09:48:06;;;;;;;73.93;31.02;;;17.20;53.10;;;;;;5060261;28;20155;-80
2022/03/28 09:50:37;;;;;;;76.82;32.38;;;17.20;52.80;;;;;;5061093;28;20302;-81
2022/03/28 09:53:15;;;;;;;67.38;30.60;;;17.30;52.60;;;;;;5060957;28;20049;-80
2022/03/28 09:55:48;;;;;;;67.97;30.75;;;17.30;52.70;;;;;;5061123;28;20044;-80
2022/03/28 09:58:33;;;;;;;62.40;30.83;;;17.40;52.60;;;;;;5060114;28;20045;-81
2022/03/28 10:01:01;;;;;;;65.47;30.80;;;17.30;52.40;;;;;;5060518;28;20571;-80
2022/03/28 10:03:33;;;;;;;67.35;29.50;;;17.40;52.30;;;;;;5045555;28;20053;-81
2022/03/28 10:06:01;;;;;;;70.20;29.30;;;17.40;51.90;;;;;;5045642;28;20135;-81
2022/03/28 10:08:29;;;;;;;74.93;29.75;;;17.40;51.60;;;;;;5061585;28;20128;-80
2022/03/28 10:10:58;;;;;;;72.10;28.23;;;17.40;51.10;;;;;;5066771;28;20053;-81
2022/03/28 10:13:26;;;;;;;60.83;27.15;;;17.50;50.70;;;;;;5065437;28;20042;-81
2022/03/28 10:15:53;;;;;;;61.25;27.27;;;17.50;50.30;;;;;;5066434;28;20171;-81
2022/03/28 10:18:20;;;;;;;60.30;24.70;;;17.50;50.00;;;;;;5054285;28;20477;-80
2022/03/28 10:20:53;;;;;;;52.40;23.70;;;17.60;49.20;;;;;;5049820;28;20531;-80
2022/03/28 10:23:23;;;;;;;54.83;25.52;;;17.70;48.80;;;;;;5047199;28;20061;-81
2022/03/28 10:25:53;;;;;;;54.53;24.60;;;17.70;48.60;;;;;;5051145;28;20118;-79
2022/03/28 10:28:22;;;;;;;50.08;21.30;;;17.80;47.80;;;;;;5049371;28;20045;-79
2022/03/28 10:30:49;;;;;;;175.50;28.33;;;17.90;46.70;;;;;;5044743;28;20044;-80
2022/03/28 10:33:22;;;;;;;62.50;20.42;;;18.00;46.00;;;;;;5043327;28;20072;-77
2022/03/28 10:36:00;;;;;;;70.35;21.70;;;18.00;46.10;;;;;;5045297;28;20554;-78
2022/03/28 10:38:27;;;;;;;70.82;23.08;;;18.10;47.00;;;;;;5044612;28;20088;-77
2022/03/28 10:40:57;;;;;;;83.65;22.35;;;18.10;46.30;;;;;;5046346;28;20141;-77
2022/03/28 10:43:27;;;;;;;59.63;19.95;;;18.20;44.80;;;;;;5043077;28;20049;-77
2022/03/28 10:45:56;;;;;;;58.38;20.27;;;18.20;44.00;;;;;;5044485;28;20052;-77
2022/03/28 10:48:39;;;;;;;56.03;18.33;;;18.30;43.10;;;;;;5043500;28;20038;-78
2022/03/28 10:51:08;;;;;;;51.88;19.33;;;18.40;43.10;;;;;;5041360;28;20060;-78
2022/03/28 10:53:40;;;;;;;69.10;19.70;;;18.50;44.10;;;;;;5045142;28;20682;-78
2022/03/28 10:56:11;;;;;;;71.20;20.58;;;18.50;43.70;;;;;;5044401;28;20455;-77
2022/03/28 10:58:41;;;;;;;64.30;19.92;;;18.60;43.30;;;;;;5047147;28;20129;-79
2022/03/28 11:01:23;;;;;;;176.85;24.58;;;18.70;42.60;;;;;;5043302;28;20547;-78
2022/03/28 11:04:00;;;;;;;54.20;20.10;;;18.80;43.70;;;;;;5047391;28;20385;-78
2022/03/28 11:06:49;;;;;;;42.35;19.35;;;18.90;42.90;;;;;;5045377;28;20064;-79
2022/03/28 11:09:43;;;;;;;45.47;18.83;;;18.90;41.70;;;;;;5043438;28;20080;-79
2022/03/28 11:12:12;;;;;;;46.85;18.00;;;18.90;40.60;;;;;;5039661;28;20041;-77
2022/03/28 11:14:43;;;;;;;50.13;18.73;;;19.00;40.20;;;;;;5042316;28;20147;-78
2022/03/28 11:17:14;;;;;;;;;;;19.00;40.50;;;;;;5042579;28;20055;-78
2022/03/28 11:19:53;;;;;;;36.15;16.63;;;19.10;40.90;;;;;;5043431;28;20427;-77
2022/03/28 11:22:37;;;;;;;51.33;20.92;;;19.10;40.90;;;;;;5040411;28;20053;-77
2022/03/28 11:25:05;;;;;;;49.35;18.75;;;19.10;40.70;;;;;;5042743;28;20053;-78
2022/03/28 11:27:34;;;;;;;46.50;19.30;;;19.20;40.40;;;;;;5043177;28;20073;-78
2022/03/28 11:30:04;;;;;;;33.88;17.40;;;19.30;39.90;;;;;;5042209;28;20140;-78
2022/03/28 11:32:33;;;;;;;44.58;18.05;;;19.40;39.70;;;;;;5042481;28;20529;-78
2022/03/28 11:35:00;;;;;;;38.92;18.67;;;19.40;39.70;;;;;;5043220;28;20081;-78
2022/03/28 11:37:29;;;;;;;40.53;18.30;;;19.50;39.60;;;;;;5042577;28;20059;-78
2022/03/28 11:39:58;;;;;;;43.75;18.42;;;19.60;39.50;;;;;;5039046;28;20186;-78
2022/03/28 11:42:27;;;;;;;47.30;19.23;;;19.70;39.00;;;;;;5042210;28;20056;-78
2022/03/28 11:44:55;;;;;;;42.22;18.52;;;19.70;38.30;;;;;;5041434;28;20053;-78
2022/03/28 11:47:24;;;;;;;39.20;17.60;;;19.70;37.40;;;;;;5040990;28;20052;-78
2022/03/28 11:49:57;;;;;;;46.92;18.42;;;19.80;37.40;;;;;;5042124;28;20048;-78
2022/03/28 11:52:26;;;;;;;44.10;18.70;;;19.80;37.40;;;;;;5041358;28;20053;-78
2022/03/28 11:54:55;;;;;;;44.55;18.13;;;19.90;37.20;;;;;;5042130;28;20128;-78
2022/03/28 12:00:15;;;;;;;;;;;19.90;36.00;;;;;;5042290;28;20052;-78
2022/03/28 12:02:54;;;;;;;36.03;16.95;;;20.00;35.70;;;;;;5039062;28;19935;-78
2022/03/28 12:05:26;;;;;;;44.88;18.45;;;20.00;36.50;;;;;;5040007;28;20045;-77
2022/03/28 12:07:53;;;;;;;;;;;20.00;35.60;;;;;;5041708;28;20080;-77
2022/03/28 12:10:25;;;;;;;39.85;17.17;;;20.00;35.40;;;;;;5040375;28;20016;-77
2022/03/28 12:12:52;;;;;;;41.13;16.63;;;20.10;35.70;;;;;;5040933;28;20487;-79
2022/03/28 12:15:30;;;;;;;40.40;17.15;;;20.10;35.40;;;;;;5040796;28;20537;-78
2022/03/28 12:18:00;;;;;;;42.83;18.17;;;20.20;35.30;;;;;;5041586;28;20052;-78
2022/03/28 12:20:29;;;;;;;43.63;18.48;;;20.30;34.60;;;;;;5039173;28;20117;-78
2022/03/28 12:22:58;;;;;;;42.28;17.95;;;20.30;34.70;;;;;;5040643;28;20053;-77
2022/03/28 12:25:30;;;;;;;41.17;18.45;;;20.30;35.20;;;;;;5043254;28;20422;-78
2022/03/28 12:27:59;;;;;;;42.50;19.92;;;20.40;34.80;;;;;;5040449;28;20049;-77
2022/03/28 12:30:29;;;;;;;40.63;18.65;;;20.40;34.20;;;;;;5039414;28;20550;-79
2022/03/28 12:32:57;;;;;;;38.35;19.17;;;20.40;34.10;;;;;;5042773;28;20057;-81
2022/03/28 12:35:26;;;;;;;45.10;19.85;;;20.50;34.40;;;;;;5042323;28;20045;-80
2022/03/28 12:38:01;;;;;;;46.38;18.88;;;20.50;33.50;;;;;;5041135;28;20112;-80
2022/03/28 12:40:30;;;;;;;44.42;18.73;;;20.60;32.90;;;;;;5037741;28;20040;-80
2022/03/28 12:42:58;;;;;;;38.47;18.80;;;20.60;33.00;;;;;;5043535;28;20087;-79